Time;durP1;ratioP1;P1;durP2;ratioP2;P2;SDS_P1;SDS_P2;PMS_P1;PMS_P2;Temp;Humidity;BMP_temperature;BMP_pressure;BME280_temperature;BME280_humidity;BME280_pressure;Samples;Min_cycle;Max_cycle;Signal;HPM_P1;HPM_P2
2022/03/29 00:01:55;;;;;;;29.17;18.58;;;7.80;99.90;;;;;;4975471;28;20053;-56
2022/03/29 00:04:22;;;;;;;28.60;19.02;;;7.80;99.90;;;;;;4968285;28;20392;-56
2022/03/29 00:06:48;;;;;;;31.60;19.50;;;7.80;99.90;;;;;;4979872;28;20132;-56
2022/03/29 00:09:14;;;;;;;23.38;17.13;;;7.80;99.90;;;;;;4951167;28;20046;-57
2022/03/29 00:11:40;;;;;;;28.13;17.60;;;7.80;99.90;;;;;;4996364;28;20518;-58
2022/03/29 00:14:06;;;;;;;30.67;18.55;;;7.80;99.90;;;;;;4971308;28;20068;-58
2022/03/29 00:16:32;;;;;;;23.90;16.45;;;7.80;99.90;;;;;;4979994;28;20416;-57
2022/03/29 00:18:58;;;;;;;27.08;18.35;;;7.80;99.90;;;;;;4962890;28;20035;-56
2022/03/29 00:21:24;;;;;;;24.30;16.42;;;7.80;99.90;;;;;;4976647;28;20072;-55
2022/03/29 00:23:51;;;;;;;24.83;16.55;;;7.90;99.90;;;;;;4960752;28;20057;-54
2022/03/29 00:26:16;;;;;;;23.48;15.75;;;7.90;99.90;;;;;;4948588;28;20057;-56
2022/03/29 00:28:43;;;;;;;21.45;15.43;;;7.90;99.90;;;;;;4974443;28;20356;-58
2022/03/29 00:31:10;;;;;;;22.60;14.82;;;7.90;99.90;;;;;;4965488;28;20046;-57
2022/03/29 00:33:35;;;;;;;27.27;16.80;;;7.80;99.90;;;;;;4986738;28;20625;-52
2022/03/29 00:36:01;;;;;;;26.92;16.75;;;7.80;99.90;;;;;;4962956;28;20065;-56
2022/03/29 00:38:27;;;;;;;27.10;15.95;;;7.80;99.90;;;;;;4966271;28;20078;-53
2022/03/29 00:40:53;;;;;;;25.95;16.67;;;7.90;99.90;;;;;;4954916;28;20049;-58
2022/03/29 00:43:19;;;;;;;25.02;15.05;;;7.90;99.90;;;;;;4966278;28;20080;-58
2022/03/29 00:45:45;;;;;;;27.40;16.58;;;7.90;99.90;;;;;;4969938;28;20058;-56
2022/03/29 00:48:13;;;;;;;33.05;19.67;;;7.90;99.90;;;;;;4948019;28;20049;-59
2022/03/29 00:50:40;;;;;;;26.45;17.83;;;7.90;99.90;;;;;;4969181;28;20187;-56
2022/03/29 00:53:06;;;;;;;30.10;18.40;;;7.80;99.90;;;;;;4972687;28;20183;-58
2022/03/29 00:55:32;;;;;;;22.98;15.32;;;7.80;99.90;;;;;;4970015;28;20077;-57
2022/03/29 00:58:03;;;;;;;25.05;17.55;;;7.80;99.90;;;;;;4971234;28;20100;-59
2022/03/29 01:00:31;;;;;;;23.92;16.80;;;7.90;99.90;;;;;;4970956;28;20045;-53
2022/03/29 01:02:58;;;;;;;28.30;19.25;;;7.80;99.90;;;;;;4969490;28;20052;-58
2022/03/29 01:05:26;;;;;;;32.72;20.67;;;7.80;99.90;;;;;;4967244;28;20265;-53
2022/03/29 01:07:57;;;;;;;31.25;19.55;;;7.80;99.90;;;;;;4953698;28;20517;-57
2022/03/29 01:10:24;;;;;;;24.70;16.55;;;7.80;99.90;;;;;;4967800;28;21593;-55
2022/03/29 01:12:51;;;;;;;31.00;19.58;;;7.80;99.90;;;;;;5009125;28;20045;-58
2022/03/29 01:15:19;;;;;;;32.25;19.60;;;7.80;99.90;;;;;;4966992;28;20061;-54
2022/03/29 01:17:46;;;;;;;31.30;19.50;;;7.90;99.90;;;;;;4963321;28;20042;-55
2022/03/29 01:20:29;;;;;;;26.88;17.13;;;7.80;99.90;;;;;;4978970;28;20038;-53
2022/03/29 01:22:56;;;;;;;30.23;18.42;;;7.70;99.90;;;;;;5010923;28;20046;-57
2022/03/29 01:25:30;;;;;;;26.40;16.88;;;7.70;99.90;;;;;;4959804;28;20503;-58
2022/03/29 01:27:56;;;;;;;29.75;18.08;;;7.70;99.90;;;;;;4979655;28;20664;-55
2022/03/29 01:30:22;;;;;;;28.58;17.40;;;7.70;99.90;;;;;;4978616;28;20097;-56
2022/03/29 01:32:50;;;;;;;27.23;17.15;;;7.70;99.90;;;;;;4955112;28;20077;-55
2022/03/29 01:35:19;;;;;;;28.02;17.08;;;7.70;99.90;;;;;;4985229;28;20046;-53
2022/03/29 01:37:45;;;;;;;26.00;16.67;;;7.70;99.90;;;;;;4952764;28;20440;-59
2022/03/29 01:40:15;;;;;;;26.20;16.30;;;7.70;99.90;;;;;;4968977;28;20099;-57
2022/03/29 01:42:52;;;;;;;26.65;16.95;;;7.70;99.90;;;;;;4935120;28;20194;-53
2022/03/29 01:45:19;;;;;;;23.05;16.00;;;7.70;99.90;;;;;;4964844;28;20301;-57
2022/03/29 01:47:45;;;;;;;25.42;15.30;;;7.70;99.90;;;;;;4973406;28;21202;-55
2022/03/29 01:50:12;;;;;;;27.50;16.42;;;7.70;99.90;;;;;;4946353;28;20049;-58
2022/03/29 01:52:45;;;;;;;25.90;16.42;;;7.80;99.90;;;;;;4952985;28;20192;-58
2022/03/29 01:55:12;;;;;;;27.40;16.60;;;7.70;99.90;;;;;;4961125;28;20046;-58
2022/03/29 01:57:39;;;;;;;26.15;17.15;;;7.70;99.90;;;;;;4980294;28;20049;-56
2022/03/29 02:02:55;;;;;;;32.30;17.42;;;7.70;99.90;;;;;;4984462;28;20395;-55
2022/03/29 02:05:21;;;;;;;25.83;16.50;;;7.80;99.90;;;;;;4969491;28;21711;-54
2022/03/29 02:07:47;;;;;;;28.65;18.75;;;7.70;99.90;;;;;;4991663;28;20073;-53
2022/03/29 02:10:17;;;;;;;29.88;17.20;;;7.60;99.90;;;;;;5009031;28;20046;-56
2022/03/29 02:12:43;;;;;;;27.38;18.17;;;7.60;99.90;;;;;;5004656;28;20042;-53
2022/03/29 02:15:09;;;;;;;26.65;17.02;;;7.50;99.90;;;;;;4989835;28;20042;-53
2022/03/29 02:17:35;;;;;;;29.10;17.80;;;7.50;99.90;;;;;;4976709;28;20487;-56
2022/03/29 02:20:02;;;;;;;29.42;17.52;;;7.50;99.90;;;;;;4999952;28;20037;-55
2022/03/29 02:22:28;;;;;;;36.20;19.73;;;7.50;99.90;;;;;;4961067;28;20054;-57
2022/03/29 02:24:53;;;;;;;30.63;18.52;;;7.50;99.90;;;;;;4943235;28;20099;-54
2022/03/29 02:27:19;;;;;;;27.50;17.15;;;7.50;99.90;;;;;;4959821;28;20038;-57
2022/03/29 02:29:45;;;;;;;30.50;17.83;;;7.50;99.90;;;;;;4954745;28;20517;-54
2022/03/29 02:32:10;;;;;;;30.75;18.27;;;7.50;99.90;;;;;;4964351;28;20108;-57
2022/03/29 02:34:36;;;;;;;30.55;17.67;;;7.50;99.90;;;;;;4968937;28;20079;-54
2022/03/29 02:37:02;;;;;;;29.95;18.42;;;7.50;99.90;;;;;;4968674;28;20106;-58
2022/03/29 02:39:28;;;;;;;27.10;17.75;;;7.50;99.90;;;;;;4965811;28;20034;-56
2022/03/29 02:41:54;;;;;;;27.98;18.38;;;7.50;99.90;;;;;;4991814;28;20066;-53
2022/03/29 02:44:20;;;;;;;32.80;18.77;;;7.50;99.90;;;;;;4971571;28;20038;-58
2022/03/29 02:46:46;;;;;;;32.63;19.20;;;7.50;99.90;;;;;;4971752;28;20104;-56
2022/03/29 02:49:11;;;;;;;36.53;21.38;;;7.50;99.90;;;;;;4950492;28;20048;-58
2022/03/29 02:51:38;;;;;;;29.02;18.02;;;7.40;99.90;;;;;;4966583;28;20172;-53
2022/03/29 02:54:04;;;;;;;26.17;17.23;;;7.40;99.90;;;;;;4968642;28;20065;-59
2022/03/29 02:56:29;;;;;;;32.63;19.55;;;7.40;99.90;;;;;;4940833;28;21083;-55
2022/03/29 02:58:55;;;;;;;30.65;18.98;;;7.40;99.90;;;;;;4939240;28;20089;-58
2022/03/29 03:03:49;;;;;;;34.88;19.50;;;7.50;99.90;;;;;;5013188;28;20101;-57
2022/03/29 03:06:15;;;;;;;32.75;19.70;;;7.50;99.90;;;;;;5013503;28;20043;-56
2022/03/29 03:08:40;;;;;;;32.47;19.92;;;7.50;99.90;;;;;;5007194;28;20060;-56
2022/03/29 03:11:07;;;;;;;31.95;19.85;;;7.50;99.90;;;;;;5008267;28;20170;-54
2022/03/29 03:13:33;;;;;;;27.05;17.60;;;7.50;99.90;;;;;;5004402;28;20052;-56
2022/03/29 03:15:59;;;;;;;34.65;19.50;;;7.50;99.90;;;;;;5004619;28;20033;-57
2022/03/29 03:18:25;;;;;;;41.20;22.67;;;7.50;99.90;;;;;;5007538;28;20052;-56
2022/03/29 03:20:51;;;;;;;35.13;21.35;;;7.50;99.90;;;;;;5018128;28;20052;-56
2022/03/29 03:23:17;;;;;;;29.00;17.75;;;7.50;99.90;;;;;;5035422;28;20033;-57
2022/03/29 03:25:42;;;;;;;32.78;20.67;;;7.50;99.90;;;;;;5037622;28;20052;-55
2022/03/29 03:28:08;;;;;;;30.58;19.80;;;7.50;99.90;;;;;;5024129;28;20052;-56
2022/03/29 03:30:34;;;;;;;31.92;19.27;;;7.60;99.90;;;;;;5022956;28;20048;-54
2022/03/29 03:33:00;;;;;;;34.40;20.30;;;7.60;99.90;;;;;;5039154;28;20081;-57
2022/03/29 03:35:26;;;;;;;34.00;21.67;;;7.50;99.90;;;;;;5027712;28;20133;-56
2022/03/29 03:37:51;;;;;;;35.60;21.77;;;7.50;99.90;;;;;;5029416;28;20489;-57
2022/03/29 03:40:17;;;;;;;31.23;19.00;;;7.50;99.90;;;;;;5018633;28;20408;-57
2022/03/29 03:42:43;;;;;;;37.88;22.38;;;7.50;99.90;;;;;;5038369;28;20043;-55
2022/03/29 03:45:09;;;;;;;35.05;22.05;;;7.40;99.90;;;;;;5032606;28;20080;-55
2022/03/29 03:47:36;;;;;;;33.63;20.67;;;7.50;99.90;;;;;;5039281;28;20103;-55
2022/03/29 03:50:03;;;;;;;30.20;19.40;;;7.50;99.90;;;;;;5039494;28;20072;-54
2022/03/29 03:52:29;;;;;;;38.25;23.05;;;7.50;99.90;;;;;;5033685;28;20048;-54
2022/03/29 03:54:56;;;;;;;37.63;22.38;;;7.40;99.90;;;;;;5032344;28;20109;-57
2022/03/29 03:57:22;;;;;;;37.67;21.23;;;7.40;99.90;;;;;;5013725;28;20123;-56
2022/03/29 03:59:50;;;;;;;32.35;21.38;;;7.40;99.90;;;;;;5031395;28;20047;-56
2022/03/29 04:02:16;;;;;;;31.77;19.98;;;7.40;99.90;;;;;;5032387;28;20036;-56
2022/03/29 04:04:41;;;;;;;41.30;22.95;;;7.40;99.90;;;;;;5015249;28;20866;-54
2022/03/29 04:07:07;;;;;;;34.83;20.50;;;7.40;99.90;;;;;;5013785;28;20075;-57
2022/03/29 04:09:35;;;;;;;36.28;21.77;;;7.30;99.90;;;;;;5020028;28;20101;-56
2022/03/29 04:12:06;;;;;;;36.63;21.95;;;7.30;99.90;;;;;;5014630;28;20179;-57
2022/03/29 04:14:32;;;;;;;32.88;20.23;;;7.40;99.90;;;;;;5028402;28;20176;-55
2022/03/29 04:16:57;;;;;;;37.85;22.60;;;7.30;99.90;;;;;;5010529;28;20051;-57
2022/03/29 04:19:23;;;;;;;37.58;21.88;;;7.30;99.90;;;;;;5054759;28;20040;-56
2022/03/29 04:21:49;;;;;;;36.55;20.73;;;7.30;99.90;;;;;;5034686;28;20040;-54
2022/03/29 04:24:15;;;;;;;37.67;21.95;;;7.30;99.90;;;;;;5006425;28;20037;-56
2022/03/29 04:26:41;;;;;;;40.22;21.85;;;7.30;99.90;;;;;;5027553;28;20859;-56
2022/03/29 04:29:07;;;;;;;41.60;24.20;;;7.20;99.90;;;;;;5008917;28;20098;-56
2022/03/29 04:31:33;;;;;;;35.80;22.98;;;7.20;99.90;;;;;;5008940;28;20135;-56
2022/03/29 04:33:59;;;;;;;38.58;22.98;;;7.30;99.90;;;;;;5024310;28;20137;-56
2022/03/29 04:36:26;;;;;;;37.75;21.20;;;7.30;99.90;;;;;;4996653;28;20493;-56
2022/03/29 04:38:52;;;;;;;32.38;20.75;;;7.30;99.90;;;;;;5026101;28;20048;-57
2022/03/29 04:41:18;;;;;;;37.30;24.10;;;7.40;99.90;;;;;;5031735;28;20561;-55
2022/03/29 04:43:44;;;;;;;34.88;21.85;;;7.30;99.90;;;;;;5009636;28;20091;-56
2022/03/29 04:46:10;;;;;;;40.13;24.33;;;7.30;99.90;;;;;;5043492;28;20808;-55
2022/03/29 04:48:36;;;;;;;42.50;26.40;;;7.30;99.90;;;;;;5016611;28;20059;-57
2022/03/29 04:51:02;;;;;;;49.38;28.80;;;7.30;99.90;;;;;;5018793;28;20048;-55
2022/03/29 04:53:28;;;;;;;51.17;29.48;;;7.30;99.90;;;;;;5036259;28;20051;-56
2022/03/29 04:55:54;;;;;;;45.80;28.30;;;7.30;99.90;;;;;;5020665;28;20040;-52
2022/03/29 04:58:21;;;;;;;46.97;28.40;;;7.40;99.90;;;;;;5038500;28;20037;-56
2022/03/29 05:00:47;;;;;;;45.15;25.48;;;7.30;99.90;;;;;;5029200;28;20043;-54
2022/03/29 05:03:12;;;;;;;36.22;24.48;;;7.40;99.90;;;;;;5028106;28;20690;-56
2022/03/29 05:05:38;;;;;;;43.15;24.42;;;7.40;99.90;;;;;;5030713;28;20194;-56
2022/03/29 05:08:04;;;;;;;46.42;25.50;;;7.40;99.90;;;;;;5019730;28;20061;-56
2022/03/29 05:10:30;;;;;;;37.10;22.17;;;7.40;99.90;;;;;;5044781;28;20042;-56
2022/03/29 05:12:56;;;;;;;36.28;23.25;;;7.40;99.90;;;;;;5023172;28;20048;-57
2022/03/29 05:15:22;;;;;;;43.58;26.02;;;7.40;99.90;;;;;;5005703;28;20530;-55
2022/03/29 05:17:49;;;;;;;45.97;25.15;;;7.40;99.90;;;;;;5042719;28;20036;-57
2022/03/29 05:20:16;;;;;;;38.92;22.30;;;7.40;99.90;;;;;;5042939;28;20040;-56
2022/03/29 05:22:50;;;;;;;35.55;20.90;;;7.40;99.90;;;;;;5029173;28;21218;-56
2022/03/29 05:25:17;;;;;;;41.78;23.15;;;7.40;99.90;;;;;;5014298;28;20448;-55
2022/03/29 05:27:44;;;;;;;36.17;21.60;;;7.40;99.90;;;;;;5046325;28;20536;-56
2022/03/29 05:30:11;;;;;;;39.58;22.23;;;7.40;99.90;;;;;;5029492;28;20047;-55
2022/03/29 05:32:37;;;;;;;37.78;22.27;;;7.40;99.90;;;;;;5025711;28;20049;-56
2022/03/29 05:35:04;;;;;;;39.90;23.02;;;7.40;99.90;;;;;;5038608;28;20048;-56
2022/03/29 05:37:30;;;;;;;46.38;25.35;;;7.40;99.90;;;;;;5028351;28;20051;-56
2022/03/29 05:39:55;;;;;;;41.58;23.00;;;7.40;99.90;;;;;;5007978;28;20519;-57
2022/03/29 05:42:21;;;;;;;45.10;24.17;;;7.40;99.90;;;;;;5028340;28;20048;-56
2022/03/29 05:44:47;;;;;;;42.22;24.20;;;7.40;99.90;;;;;;5007310;28;20520;-56
2022/03/29 05:49:57;;;;;;;;;;;7.40;99.90;;;;;;5031810;28;20040;-56
2022/03/29 05:52:24;;;;;;;36.08;20.55;;;7.40;99.90;;;;;;5026558;28;20005;-56
2022/03/29 05:54:49;;;;;;;36.95;22.10;;;7.30;99.90;;;;;;5028810;28;20047;-56
2022/03/29 05:57:16;;;;;;;44.25;24.15;;;7.40;99.90;;;;;;5033357;28;20093;-56
2022/03/29 05:59:43;;;;;;;38.63;23.73;;;7.40;99.90;;;;;;5031432;28;20036;-55
2022/03/29 06:02:09;;;;;;;42.78;22.95;;;7.40;99.90;;;;;;5033581;28;20036;-57
2022/03/29 06:04:36;;;;;;;37.28;21.48;;;7.40;99.90;;;;;;5034302;28;20647;-56
2022/03/29 06:07:04;;;;;;;43.80;25.13;;;7.40;99.90;;;;;;5017250;28;20160;-56
2022/03/29 06:09:30;;;;;;;45.97;26.80;;;7.50;99.90;;;;;;5014929;28;20044;-56
2022/03/29 06:11:56;;;;;;;48.08;24.45;;;7.50;99.90;;;;;;5028164;28;20358;-57
2022/03/29 06:14:22;;;;;;;43.65;24.77;;;7.50;99.90;;;;;;5045885;28;20051;-56
2022/03/29 06:16:48;;;;;;;46.30;24.52;;;7.50;99.90;;;;;;5032736;28;20052;-57
2022/03/29 06:19:14;;;;;;;49.70;25.70;;;7.50;99.90;;;;;;5024383;28;20506;-57
2022/03/29 06:21:40;;;;;;;43.00;25.25;;;7.50;99.90;;;;;;5020802;28;20040;-57
2022/03/29 06:24:07;;;;;;;43.47;24.02;;;7.50;99.90;;;;;;5025039;28;20399;-56
2022/03/29 06:26:37;;;;;;;47.75;24.00;;;7.50;99.90;;;;;;5033127;28;20493;-53
2022/03/29 06:29:12;;;;;;;43.13;22.67;;;7.50;99.90;;;;;;5030429;28;20079;-57
2022/03/29 06:31:38;;;;;;;45.33;22.85;;;7.50;99.90;;;;;;5017880;28;20435;-57
2022/03/29 06:34:05;;;;;;;40.33;24.92;;;7.50;99.90;;;;;;5047748;28;20036;-55
2022/03/29 06:36:31;;;;;;;47.20;24.25;;;7.50;99.90;;;;;;5037888;28;20105;-57
2022/03/29 06:38:57;;;;;;;40.60;23.48;;;7.60;99.90;;;;;;5020718;28;20040;-57
2022/03/29 06:41:23;;;;;;;46.47;24.45;;;7.60;99.90;;;;;;5056937;28;20035;-56
2022/03/29 06:43:49;;;;;;;39.95;23.23;;;7.60;99.90;;;;;;5035339;28;20036;-56
2022/03/29 06:46:16;;;;;;;40.60;22.75;;;7.60;99.90;;;;;;5039073;28;20036;-56
2022/03/29 06:48:44;;;;;;;43.60;22.88;;;7.70;99.90;;;;;;5026236;28;20080;-56
2022/03/29 06:51:12;;;;;;;44.20;25.33;;;7.70;99.90;;;;;;5019236;28;20037;-56
2022/03/29 06:53:39;;;;;;;50.92;25.88;;;7.70;99.90;;;;;;5029829;28;20036;-57
2022/03/29 06:56:08;;;;;;;45.28;24.13;;;7.70;99.90;;;;;;5033539;28;20055;-57
2022/03/29 06:58:35;;;;;;;34.90;22.80;;;7.80;99.90;;;;;;5036366;28;20532;-55
2022/03/29 07:01:02;;;;;;;43.92;24.73;;;7.80;99.90;;;;;;5037281;28;20066;-56
2022/03/29 07:03:29;;;;;;;45.03;26.30;;;7.80;99.90;;;;;;5007318;28;20495;-55
2022/03/29 07:05:55;;;;;;;39.67;23.65;;;7.80;99.90;;;;;;5015178;28;20680;-55
2022/03/29 07:08:22;;;;;;;37.15;22.67;;;7.80;99.90;;;;;;5030964;28;20044;-56
2022/03/29 07:13:34;;;;;;;46.80;24.90;;;7.70;99.90;;;;;;5037721;28;20489;-54
2022/03/29 07:16:00;;;;;;;43.85;24.65;;;7.70;99.90;;;;;;5011041;28;20155;-55
2022/03/29 07:18:25;;;;;;;36.67;21.98;;;7.70;99.90;;;;;;5013652;28;20276;-55
2022/03/29 07:20:51;;;;;;;40.83;25.02;;;7.80;99.90;;;;;;5013778;28;20039;-56
2022/03/29 07:23:17;;;;;;;43.03;23.48;;;7.70;99.90;;;;;;5028689;28;20055;-57
2022/03/29 07:25:43;;;;;;;43.45;24.55;;;7.80;99.90;;;;;;5029692;28;20045;-56
2022/03/29 07:28:11;;;;;;;37.53;21.33;;;7.70;99.90;;;;;;5047668;28;20109;-56
2022/03/29 07:30:40;;;;;;;39.58;24.33;;;7.70;99.90;;;;;;5023689;28;20089;-55
2022/03/29 07:33:06;;;;;;;37.78;21.67;;;7.80;99.90;;;;;;5020607;28;20048;-56
2022/03/29 07:35:33;;;;;;;36.33;21.17;;;7.80;99.90;;;;;;5008101;28;20048;-56
2022/03/29 07:37:59;;;;;;;36.22;23.95;;;7.80;99.90;;;;;;5019114;28;20044;-55
2022/03/29 07:40:27;;;;;;;42.92;24.92;;;7.80;99.90;;;;;;5024017;28;20044;-55
2022/03/29 07:42:54;;;;;;;47.50;25.00;;;7.80;99.90;;;;;;5024720;28;20077;-57
2022/03/29 07:45:20;;;;;;;38.95;23.88;;;7.90;99.90;;;;;;5014625;28;20060;-57
2022/03/29 07:47:49;;;;;;;53.78;25.85;;;7.90;99.90;;;;;;5027227;28;20109;-56
2022/03/29 07:50:15;;;;;;;41.28;25.55;;;8.00;99.90;;;;;;5025660;28;20079;-56
2022/03/29 07:52:42;;;;;;;42.45;25.17;;;8.00;99.90;;;;;;5036264;28;20154;-56
2022/03/29 07:55:10;;;;;;;45.00;23.70;;;8.10;99.90;;;;;;5012308;28;20063;-56
2022/03/29 07:57:37;;;;;;;36.97;22.45;;;8.00;99.90;;;;;;5021658;28;20040;-56
2022/03/29 08:00:53;;;;;;;35.20;20.52;;;8.10;99.90;;;;;;5004752;28;20215;-56
2022/03/29 08:02:53;;;;;;;43.55;23.80;;;8.10;99.90;;;;;;5008621;28;20067;-55
2022/03/29 08:05:20;;;;;;;46.88;25.00;;;8.10;99.90;;;;;;5023640;28;20206;-57
2022/03/29 08:07:46;;;;;;;48.17;24.10;;;8.10;99.90;;;;;;5022867;28;20093;-56
2022/03/29 08:10:12;;;;;;;42.13;24.10;;;8.10;99.90;;;;;;5011827;28;20050;-57
2022/03/29 08:12:39;;;;;;;37.75;23.30;;;8.20;99.90;;;;;;5040109;28;20083;-56
2022/03/29 08:15:06;;;;;;;50.45;24.55;;;8.20;99.90;;;;;;5006584;28;20045;-56
2022/03/29 08:17:35;;;;;;;42.38;23.35;;;8.20;99.90;;;;;;5006799;28;20055;-56
2022/03/29 08:20:02;;;;;;;36.53;21.58;;;8.30;99.90;;;;;;5022188;28;20149;-56
2022/03/29 08:22:27;;;;;;;40.65;19.88;;;8.30;99.90;;;;;;5007452;28;20518;-56
2022/03/29 08:24:53;;;;;;;45.90;22.95;;;8.30;99.90;;;;;;5022473;28;20048;-57
2022/03/29 08:27:19;;;;;;;41.58;22.23;;;8.30;99.90;;;;;;5002532;28;20044;-57
2022/03/29 08:29:47;;;;;;;43.80;23.02;;;8.30;99.90;;;;;;5021438;28;20959;-57
2022/03/29 08:32:13;;;;;;;44.28;23.10;;;8.40;99.90;;;;;;5001219;28;21125;-56
2022/03/29 08:34:39;;;;;;;43.53;23.38;;;8.40;99.90;;;;;;5013853;28;20040;-56
2022/03/29 08:37:05;;;;;;;37.67;21.63;;;8.40;99.90;;;;;;4998899;28;20044;-57
2022/03/29 08:39:31;;;;;;;41.28;22.42;;;8.40;99.90;;;;;;5026956;28;20484;-57
2022/03/29 08:42:10;;;;;;;39.55;23.08;;;8.40;99.90;;;;;;5025598;28;20134;-56
2022/03/29 08:44:38;;;;;;;39.30;19.95;;;8.40;99.90;;;;;;5024770;28;20024;-56
2022/03/29 08:47:08;;;;;;;46.15;22.92;;;8.50;99.90;;;;;;5052104;28;20040;-54
2022/03/29 08:49:35;;;;;;;41.78;22.42;;;8.60;99.90;;;;;;5030091;28;21695;-57
2022/03/29 08:52:01;;;;;;;43.97;23.20;;;8.70;99.90;;;;;;5025797;28;20102;-56
2022/03/29 08:54:27;;;;;;;44.13;22.95;;;8.70;99.90;;;;;;5025579;28;20101;-56
2022/03/29 08:56:53;;;;;;;40.38;21.10;;;8.70;99.90;;;;;;5024351;28;20098;-57
2022/03/29 08:59:20;;;;;;;34.25;20.95;;;8.80;99.90;;;;;;5018515;28;20056;-56
2022/03/29 09:01:47;;;;;;;37.10;21.70;;;8.80;99.90;;;;;;5017937;28;20040;-57
2022/03/29 09:04:15;;;;;;;37.80;20.63;;;8.90;99.90;;;;;;5023197;28;20094;-56
2022/03/29 09:06:50;;;;;;;38.08;21.88;;;9.00;99.90;;;;;;5008923;28;21119;-56
2022/03/29 09:09:35;;;;;;;39.20;21.63;;;9.10;99.90;;;;;;5019022;28;20052;-57
2022/03/29 09:12:18;;;;;;;38.03;19.48;;;9.10;99.90;;;;;;5006119;28;20136;-56
2022/03/29 09:14:54;;;;;;;31.23;18.20;;;9.20;99.90;;;;;;5010111;28;20500;-56
2022/03/29 09:17:34;;;;;;;40.33;20.65;;;9.30;99.90;;;;;;5019559;28;20076;-56
2022/03/29 09:20:03;;;;;;;34.67;18.98;;;9.40;99.90;;;;;;5014997;28;20048;-57
2022/03/29 09:22:52;;;;;;;34.05;18.77;;;9.50;99.90;;;;;;5034284;28;20047;-57
2022/03/29 09:25:22;;;;;;;34.05;18.27;;;9.60;99.90;;;;;;5010525;28;20052;-56
2022/03/29 09:28:06;;;;;;;31.45;18.45;;;9.60;99.90;;;;;;5025913;28;20263;-57
2022/03/29 09:30:39;;;;;;;38.45;18.75;;;9.70;99.90;;;;;;5028344;28;20044;-54
2022/03/29 09:33:12;;;;;;;36.13;19.83;;;9.80;99.90;;;;;;5006937;28;20051;-57
2022/03/29 09:35:59;;;;;;;34.78;19.90;;;9.80;99.90;;;;;;5024871;28;20083;-55
2022/03/29 09:38:31;;;;;;;34.85;18.45;;;9.90;99.90;;;;;;5015095;28;20130;-56
2022/03/29 09:40:58;;;;;;;29.40;17.90;;;9.90;99.90;;;;;;5033447;28;20581;-57
2022/03/29 09:43:26;;;;;;;28.77;18.33;;;10.10;99.90;;;;;;5046565;28;20055;-57
2022/03/29 09:45:55;;;;;;;38.58;18.35;;;10.20;99.90;;;;;;5032975;28;20060;-56
2022/03/29 09:48:39;;;;;;;39.03;16.95;;;10.30;99.90;;;;;;5033605;28;20517;-56
2022/03/29 09:51:08;;;;;;;;;;;10.50;99.90;;;;;;5011792;28;20058;-56
2022/03/29 09:53:38;;;;;;;33.22;16.35;;;10.50;99.90;;;;;;5013275;28;19923;-59
2022/03/29 09:56:07;;;;;;;29.85;15.00;;;10.60;99.90;;;;;;5048676;28;21188;-58
2022/03/29 09:58:33;;;;;;;28.08;14.48;;;10.60;99.90;;;;;;5006888;28;20051;-57
2022/03/29 10:00:59;;;;;;;29.90;15.18;;;10.70;99.90;;;;;;5011315;28;21029;-57
2022/03/29 10:03:26;;;;;;;31.13;14.98;;;10.70;99.90;;;;;;5027463;28;20629;-55
2022/03/29 10:05:58;;;;;;;26.67;13.77;;;10.70;99.90;;;;;;5031278;28;20117;-55
2022/03/29 10:11:22;;;;;;;32.25;12.65;;;10.80;99.90;;;;;;5023156;28;20334;-57
2022/03/29 10:13:49;;;;;;;31.25;12.57;;;10.70;99.90;;;;;;4997080;28;20048;-57
2022/03/29 10:16:16;;;;;;;26.15;12.73;;;10.60;99.90;;;;;;5040216;28;20056;-61
2022/03/29 10:18:44;;;;;;;27.17;12.98;;;10.50;99.90;;;;;;5046106;28;20035;-56
2022/03/29 10:21:12;;;;;;;27.08;12.88;;;10.50;99.90;;;;;;5021657;28;20516;-56
2022/03/29 10:23:38;;;;;;;36.70;12.98;;;10.60;99.90;;;;;;5019785;28;20155;-55
2022/03/29 10:26:04;;;;;;;28.50;12.20;;;10.70;99.90;;;;;;5038640;28;20048;-55
2022/03/29 10:28:31;;;;;;;33.88;12.65;;;10.70;99.90;;;;;;5024920;28;20063;-60
2022/03/29 10:30:57;;;;;;;34.58;13.13;;;10.70;99.90;;;;;;5038493;28;20040;-59
2022/03/29 10:33:27;;;;;;;29.23;12.38;;;10.80;99.90;;;;;;5031017;28;20049;-58
2022/03/29 10:36:00;;;;;;;31.33;13.20;;;10.90;99.90;;;;;;5031976;28;21028;-56
2022/03/29 10:38:47;;;;;;;25.55;10.95;;;11.20;99.90;;;;;;5037310;28;20040;-57
2022/03/29 10:41:28;;;;;;;28.33;12.07;;;11.30;99.90;;;;;;5032665;28;20040;-57
2022/03/29 10:44:08;;;;;;;27.02;11.40;;;11.40;99.90;;;;;;5030340;28;20032;-55
2022/03/29 10:46:37;;;;;;;30.00;12.10;;;11.40;99.90;;;;;;5039496;28;20043;-60
2022/03/29 10:49:22;;;;;;;24.27;11.73;;;11.30;99.80;;;;;;5037005;28;20053;-57
2022/03/29 10:52:08;;;;;;;27.00;12.60;;;11.30;99.30;;;;;;5034235;28;20513;-58
2022/03/29 10:54:41;;;;;;;23.80;10.52;;;11.30;99.30;;;;;;5024448;28;20517;-60
2022/03/29 10:57:16;;;;;;;25.88;10.95;;;11.30;99.10;;;;;;5023695;28;20052;-57
2022/03/29 10:59:42;;;;;;;26.38;10.55;;;11.40;98.90;;;;;;5037604;28;20480;-55
2022/03/29 11:02:14;;;;;;;27.55;10.70;;;11.50;98.70;;;;;;5047017;28;20394;-56
2022/03/29 11:05:02;;;;;;;32.42;11.50;;;11.70;98.60;;;;;;5035449;28;20132;-60
2022/03/29 11:07:29;;;;;;;29.77;11.35;;;11.90;98.40;;;;;;5026420;28;20076;-56
2022/03/29 11:10:21;;;;;;;25.50;10.00;;;12.10;98.10;;;;;;5026913;28;20097;-57
2022/03/29 11:12:49;;;;;;;23.63;10.50;;;12.20;97.90;;;;;;5041100;28;20107;-57
2022/03/29 11:15:36;;;;;;;32.83;11.90;;;12.20;97.60;;;;;;5021866;28;20299;-56
2022/03/29 11:18:30;;;;;;;26.80;11.05;;;12.20;97.70;;;;;;5019613;28;20049;-59
2022/03/29 11:21:02;;;;;;;25.83;10.68;;;12.20;97.20;;;;;;5053483;28;20377;-57
2022/03/29 11:23:45;;;;;;;30.98;10.80;;;12.00;96.40;;;;;;5033460;28;20111;-58
2022/03/29 11:26:15;;;;;;;23.92;11.77;;;12.00;96.90;;;;;;5035154;28;20616;-57
2022/03/29 11:28:56;;;;;;;21.88;10.45;;;12.00;97.10;;;;;;5038481;28;20099;-57
2022/03/29 11:31:23;;;;;;;24.30;11.18;;;12.00;96.80;;;;;;5034074;28;20049;-57
2022/03/29 11:33:50;;;;;;;26.58;10.05;;;11.90;96.30;;;;;;5018587;28;20120;-60
2022/03/29 11:36:20;;;;;;;27.38;11.23;;;11.70;96.20;;;;;;5052088;28;20382;-58
2022/03/29 11:38:46;;;;;;;30.95;11.35;;;11.70;97.00;;;;;;5042924;28;20040;-57
2022/03/29 11:41:24;;;;;;;25.92;10.23;;;11.80;97.30;;;;;;5043256;28;20067;-56
2022/03/29 11:43:52;;;;;;;26.33;9.95;;;11.90;97.00;;;;;;5037760;28;20036;-56
2022/03/29 11:46:18;;;;;;;28.17;9.48;;;12.00;96.70;;;;;;5054905;28;20144;-60
2022/03/29 11:48:49;;;;;;;28.13;9.95;;;12.10;96.80;;;;;;5027402;28;20560;-55
2022/03/29 11:51:16;;;;;;;27.90;9.95;;;12.20;96.40;;;;;;5053318;28;20032;-57
2022/03/29 11:53:41;;;;;;;26.48;9.75;;;12.30;96.40;;;;;;5026148;28;20040;-56
2022/03/29 11:56:08;;;;;;;27.95;10.30;;;12.20;96.40;;;;;;5056963;28;20687;-57
2022/03/29 11:58:42;;;;;;;25.83;8.82;;;12.10;95.70;;;;;;5038513;28;20507;-57
2022/03/29 12:01:14;;;;;;;28.88;9.45;;;12.00;95.80;;;;;;5022678;28;20044;-56
2022/03/29 12:03:40;;;;;;;26.88;9.95;;;11.90;96.10;;;;;;5036016;28;20175;-57
2022/03/29 12:06:17;;;;;;;29.60;9.32;;;11.90;96.10;;;;;;5038041;28;20052;-55
2022/03/29 12:08:55;;;;;;;23.42;8.80;;;11.80;96.00;;;;;;5038682;28;20041;-56
2022/03/29 12:11:25;;;;;;;24.23;8.85;;;11.60;95.70;;;;;;5049160;28;21035;-55
2022/03/29 12:14:01;;;;;;;20.05;9.10;;;11.60;96.20;;;;;;5046677;28;20041;-57
2022/03/29 12:16:28;;;;;;;31.02;10.38;;;11.60;96.20;;;;;;5045457;28;20051;-57
2022/03/29 12:18:55;;;;;;;27.13;10.80;;;11.60;96.20;;;;;;5066877;28;20036;-59
2022/03/29 12:21:23;;;;;;;21.33;9.02;;;11.60;96.10;;;;;;5026150;28;20043;-56
2022/03/29 12:23:57;;;;;;;22.65;10.18;;;11.60;96.00;;;;;;5043961;28;20133;-55
2022/03/29 12:26:23;;;;;;;;;;;11.60;96.10;;;;;;5038746;28;20043;-54
2022/03/29 12:28:49;;;;;;;27.40;9.95;;;11.90;96.20;;;;;;5059514;28;19988;-56
2022/03/29 12:31:17;;;;;;;26.73;10.98;;;11.90;95.90;;;;;;5045819;28;20051;-57
2022/03/29 12:33:43;;;;;;;30.55;11.07;;;12.00;95.50;;;;;;5045312;28;20183;-60
2022/03/29 12:36:12;;;;;;;24.35;10.02;;;12.10;95.40;;;;;;5054486;28;20131;-53
2022/03/29 12:38:49;;;;;;;20.90;10.68;;;12.20;95.20;;;;;;5042788;28;20132;-57
2022/03/29 12:41:41;;;;;;;25.45;11.30;;;12.20;94.10;;;;;;5063612;28;20154;-55
2022/03/29 12:44:12;;;;;;;27.35;9.90;;;12.50;94.90;;;;;;5068314;28;20259;-56
2022/03/29 12:46:41;;;;;;;21.83;9.93;;;12.70;93.50;;;;;;5042415;28;20072;-57
2022/03/29 12:49:07;;;;;;;23.60;10.82;;;13.00;94.20;;;;;;5043491;28;20049;-56
2022/03/29 12:51:37;;;;;;;24.95;10.20;;;13.20;93.80;;;;;;5037157;28;20040;-59
2022/03/29 12:54:09;;;;;;;18.20;9.68;;;13.40;93.30;;;;;;5035467;28;20055;-56
2022/03/29 12:56:40;;;;;;;21.85;9.90;;;13.40;92.40;;;;;;5044196;28;20071;-57